Home > Products > Valid Products > MTR

000
SAUS46 KSTO 252211 COR
MTRBLU
SPECI KBLU 252206Z AUTO 02005KT 10SM -RA FEW012 SCT020 OVC049 08/06
A3016 RMK AO2 P0000 T00780056 TSNO $





000
SAUS46 KSTO 251838 COR
MTRBLU
SPECI KBLU 251833Z AUTO 24006KT 10SM BKN017 11/07 A3013 RMK AO2
T01110067 TSNO





000
SAUS46 KSTO 251457 COR
MTRBLU
METAR KBLU 251452Z AUTO 00000KT 10SM CLR 09/04 A3010 RMK AO2 SLP167
T00890039 53007 TSNO





000
SAUS46 KSTO 251357 COR
MTRBLU
METAR KBLU 251352Z AUTO VRB03KT 10SM CLR 07/02 A3009 RMK AO2 SLP166
T00670022 TSNO $





000
SAUS46 KSTO 251256 COR
MTRBLU
METAR KBLU 251252Z AUTO 04004KT 10SM CLR 06/02 A3009 RMK AO2 SLP166
T00560017 TSNO $





000
SAUS46 KSTO 251157 COR
MTRBLU
METAR KBLU 251152Z AUTO 03004KT 10SM CLR 06/02 A3008 RMK AO2 SLP163
70088 T00610017 10067 20050 55001 TSNO $





000
SAUS46 KSTO 250656 COR
MTRBLU
METAR KBLU 250652Z AUTO 00000KT 10SM FEW033 06/03 A3009 RMK AO2
SLP164 T00560028 TSNO $





000
SAUS46 KSTO 250556 COR
MTRBLU
METAR KBLU 250552Z AUTO 00000KT 10SM CLR 06/03 A3010 RMK AO2 SLP167
60003 T00560033 10061 20050 51008 TSNO $





000
SAUS46 KSTO 250456 COR
MTRBLU
METAR KBLU 250452Z AUTO 00000KT 10SM OVC037 06/04 A3009 RMK AO2
SLP165 T00560044 TSNO $





000
SAUS46 KSTO 250035 COR
MTRBLU
SPECI KBLU 250029Z AUTO 02003KT 10SM SCT022 OVC032 06/04 A3005 RMK
AO2 RAE28 P0000 T00610044 TSNO $





000
SAUS46 KSTO 250012 COR
MTRBLU
SPECI KBLU 250007Z AUTO 00000KT 10SM -RA SCT020 BKN028 OVC047 06/05
A3005 RMK AO2 P0000 T00610050 TSNO $





000
SAUS46 KSTO 242357 COR
MTRBLU
METAR KBLU 242352Z AUTO VRB04KT 10SM -RA FEW026 SCT033 OVC045 06/04
A3005 RMK AO2 SLP153 P0011 60085 T00610044 10078 20044 51008 TSNO $





000
SAUS46 KSTO 242322 COR
MTRBLU
SPECI KBLU 242318Z AUTO 02005KT 5SM -RA BR OVC030 06/04 A3004 RMK
AO2 P0009 T00610039 TSNO $





000
SAUS46 KSTO 242314 COR
MTRBLU
SPECI KBLU 242310Z AUTO 01004KT 4SM -RA BR BKN028 OVC035 06/04 A3004
RMK AO2 P0008 T00560039 TSNO $





000
SAUS46 KSTO 242302 COR
MTRBLU
SPECI KBLU 242258Z AUTO 36004KT 2SM RA BR OVC026 06/04 A3004 RMK AO2
P0004 T00560039 TSNO $





000
SAUS46 KSTO 242132 COR
MTRBLU
SPECI KBLU 242125Z AUTO 00000KT 1 3/4SM -RA BR BKN011 BKN016 OVC022
06/04 A3003 RMK AO2 P0005 T00560039 TSNO





000
SAUS46 KSTO 242113 COR
MTRBLU
SPECI KBLU 242108Z AUTO 06003KT 3SM RA BR BKN012 BKN017 OVC024 04/03
A3002 RMK AO2 P0002 T00440033 TSNO





000
SAUS46 KSTO 241950 COR
MTRBLU
SPECI KBLU 241943Z AUTO 29005KT 3SM -RA BR BKN006 BKN017 OVC034
07/06 A3001 RMK AO2 RAB09 P0003 T00720056 TSNO





000
SAUS46 KSTO 241854
MTRBLU
METAR KBLU 241852Z AUTO 24003KT 10SM FEW007 BKN012 OVC028 07/05
A3000 RMK AO2 SLP133 T00720050 TSNO





000
SAUS46 KSTO 241756 COR
MTRBLU
METAR KBLU 241752Z AUTO VRB04KT 10SM OVC010 08/05 A2998 RMK AO2
SLP124 60000 T00780050 10078 20056 51010 TSNO





000
SAUS46 KSTO 241724 COR
MTRBLU
SPECI KBLU 241720Z AUTO 19003KT 10SM FEW009 BKN013 OVC023 07/04
A2998 RMK AO2 T00720039 TSNO





000
SAUS46 KSTO 241712 COR
MTRBLU
SPECI KBLU 241708Z AUTO VRB03KT 10SM SCT012 BKN020 OVC090 07/04
A2998 RMK AO2 T00720044 TSNO





000
SAUS46 KSTO 241457 COR
MTRBLU
METAR KBLU 241452Z AUTO 31004KT 10SM BKN038 BKN048 OVC060 07/03
A2994 RMK AO2 SLP113 T00670028 53009 TSNO





000
SAUS46 KSTO 241257 COR
MTRBLU
METAR KBLU 241252Z AUTO 02003KT 10SM OVC040 06/03 A2991 RMK AO2
SLP103 T00610028 TSNO





000
SAUS46 KSTO 241157 COR
MTRBLU
METAR KBLU 241152Z AUTO 01003KT 10SM OVC044 06/03 A2991 RMK AO2
SLP102 60002 70002 T00560028 10067 20050 56006 TSNO





000
SAUS46 KSTO 240751 COR
MTRBLU
SPECI KBLU 240735Z AUTO 00000KT 10SM FEW027 OVC080 06/03 A2994 RMK
AO2 T00610028 TSNO





000
SAUS46 KSTO 240556 COR
MTRBLU
METAR KBLU 240552Z AUTO 00000KT 10SM BKN023 OVC050 06/03 A2995 RMK
AO2 SLP113 60000 T00610028 10078 20050 50001 TSNO





000
SAUS46 KSTO 240057 COR
MTRBLU
METAR KBLU 240052Z AUTO VRB03KT 10SM BKN019 OVC026 07/04 A2995 RMK
AO2 RAB36E45 SLP122 P0000 T00720039 TSNO





000
SAUS46 KSTO 232353
MTRBLU
METAR KBLU 232352Z AUTO 19004KT 10SM BKN027 OVC033 08/02 A2996 RMK
AO2 SLP121 T00780022 10106 20072 56002 TSNO





000
SAUS46 KSTO 232305
MTRBLU
SPECI KBLU 232302Z AUTO 23006KT 10SM SCT026 BKN034 OVC055 08/03
A2996 RMK AO2 T00780033 TSNO





000
SAUS46 KSTO 232256 COR
MTRBLU
METAR KBLU 232252Z AUTO VRB05KT 10SM FEW016 BKN029 OVC038 08/03
A2996 RMK AO2 SLP123 T00780033 TSNO





000
SAUS46 KSTO 231857 COR
MTRBLU
METAR KBLU 231852Z AUTO 18007KT 10SM CLR 09/M02 A2997 RMK AO2 SLP124
T00891017 TSNO





000
SAUS46 KSTO 231657 COR
MTRBLU
METAR KBLU 231652Z AUTO VRB04KT 10SM CLR 08/M01 A2997 RMK AO2 SLP123
T00831006 TSNO





000
SAUS46 KSTO 231456 COR
MTRBLU
METAR KBLU 231452Z AUTO 17004KT 10SM CLR 06/01 A2998 RMK AO2 SLP129
T00560006 53002 TSNO





000
SAUS46 KSTO 231356 COR
MTRBLU
METAR KBLU 231352Z AUTO 00000KT 10SM CLR 05/00 A2998 RMK AO2 SLP129
T00500000 TSNO





000
SAUS46 KSTO 231256 COR
MTRBLU
METAR KBLU 231252Z AUTO 00000KT 10SM CLR 04/M01 A2998 RMK AO2 SLP127
T00391006 TSNO





000
SAUS46 KSTO 231157 COR
MTRBLU
METAR KBLU 231152Z AUTO 00000KT 10SM CLR 04/M01 A2998 RMK AO2 SLP127
T00441011 10044 20033 56006 TSNO





000
SAUS46 KSTO 230856 COR
MTRBLU
METAR KBLU 230852Z AUTO 08003KT 10SM CLR 04/M01 A3000 RMK AO2 SLP137
T00391006 58014 TSNO





000
SAUS46 KSTO 230756 COR
MTRBLU
METAR KBLU 230752Z AUTO 05004KT 10SM CLR 03/01 A3001 RMK AO2 SLP139
T00330006 400830000 TSNO





000
SAUS46 KSTO 230657 COR
MTRBLU
METAR KBLU 230652Z AUTO 02003KT 10SM CLR 04/01 A3003 RMK AO2 SLP150
T00390006 TSNO





000
SAUS46 KSTO 230557 COR
MTRBLU
METAR KBLU 230552Z AUTO 00000KT 10SM CLR 04/01 A3005 RMK AO2 SLP154
T00440006 10083 20039 58002 TSNO





000
SAUS46 KSTO 230133 COR
MTRBLU
SPECI KBLU 230128Z AUTO 23006KT 10SM BKN029 BKN037 08/01 A3006 RMK
AO2 T00780006 TSNO





000
SAUS46 KSTO 230057 COR
MTRBLU
METAR KBLU 230052Z AUTO 19006KT 10SM SCT029 BKN036 08/01 A3006 RMK
AO2 SLP165 T00780006 TSNO





000
SAUS46 KSTO 230024 COR
MTRBLU
SPECI KBLU 230019Z AUTO 18008KT 150V220 10SM BKN026 BKN034 08/01
A3006 RMK AO2 T00780011 TSNO





000
SAUS46 KSTO 222357 COR
MTRBLU
METAR KBLU 222352Z AUTO 23008KT 10SM FEW025 SCT036 BKN110 08/01
A3007 RMK AO2 SLP164 T00780011 10083 20056 58007 TSNO





000
SAUS46 KSTO 222337 COR
MTRBLU
SPECI KBLU 222332Z AUTO 21005KT 10SM SCT024 BKN034 OVC110 07/01
A3007 RMK AO2 T00720011 TSNO





000
SAUS46 KSTO 222328 COR
MTRBLU
SPECI KBLU 222323Z AUTO 22007KT 10SM BKN024 BKN032 OVC047 07/01
A3007 RMK AO2 T00720011 TSNO





    US Dept of Commerce
    National Oceanic and Atmospheric Administration
    National Weather Service
    1325 East West Highway
    Silver Spring, MD 20910
    Page Author: NWS Internet Services Team
Disclaimer
Information Quality
Credits
Glossary
Privacy Policy
Freedom of Information Act (FOIA)
About Us
Career Opportunities